Week-End O'Beaujolais Propières (69) - VIOLET Court

Date : 22/03/2015
Distance : 6,700 km

Place Nom Licence Catégorie Club Temps min/km CN à J-60 Points Différence Nouveau CN
1 ROCHE Maxime 15418 H16 3810RA 0:49:15 7'21 6124 7261 +1137 6305
2 BERGUERRE Damien 28363 H18 7407RA 0:53:49 8'01 5555 6645 +1090 5615
3 BOULMIER Alain 9183 H45 0111RA 0:54:55 8'11 0 6511 5641
4 GENNARO Mathis 22689 H16 3810RA 0:56:16 8'23 4691 6355 +1664 5163
5 FERROT Loïc 27374 H18 7407RA 1:00:38 9'02 5194 5898 +704 5459
6 FLEURENT Dominique 276 H50 7404RA 1:02:47 9'22 6434 5696 -738 6434
7 ASTRADE Laurent 8203 H45 7305RA 1:04:45 9'39 6420 5523 -897 6420
8 RICHARD Nicolas 27821 H40 4204RA 1:04:55 9'41 5364 5508 +144 5454
9 BASSET Juliette 12398 D18 6911RA 1:05:23 9'45 5394 5469 +75 5443
10 GREFF Nicolas 25095 H40 0111RA 1:06:07 9'52 5143 5408 +265 5243
11 PLAGNOL Roman 25586 H14 2605RA 1:07:16 10'02 3981 5316 +1335 4256
12 SELLIER Jean-Marc 8508 H45 7722IF 1:09:49 10'25 5105 5122 +17 5240
13 DUDOIGNON Chloé 18089 D18 2605RA 1:11:20 10'38 5061 5013 -48 5165
14 ROCHE Robert 10089 H50 3810RA 1:12:46 10'51 5524 4914 -610 5533
15 DUCRET Philippe 241 H45 6906RA 1:13:24 10'57 5175 4872 -303 5099
16 BONORA Laurent 244 H50 6906RA 1:14:34 11'07 5940 4796 -1144 5915
17 XIMENEZ Vincent 17708 H20 3810RA 1:15:34 11'16 5642 4732 -910 5603
18 PITIOT Pierre 30045 H21 6911RA 1:16:47 11'27 0 4657 3778
19 VORWERK Jan 25744 H40 4201RA 1:16:50 11'28 4158 4654 +496 4400
20 GUIDI Claude 8505 D40 6906RA 1:17:40 11'35 4698 4604 -94 4730
21 CHOMETTE Aurore 19532 D21 4201RA 1:18:20 11'41 5041 4565 -476 5097
22 PICHARD Lucien 17710 H16 6911RA 1:19:08 11'48 5007 4519 -488 4988
23 MINOT Yoann 11418 H21 6906RA 1:19:34 11'52 4269 4494 +225 4432
24 BURIDAN Gil 6807 H55 2605RA 1:20:14 11'58 3939 4457 +518 4179
25 GENNARO Leslie 20863 D18 3810RA 1:21:39 12'11 4333 4380 +47 4329
26 DENIER Anne-Françoise 23851 D45 7109BO 1:22:06 12'15 4939 4356 -583 4915
27 BONORA Lise 11543 D16 6906RA 1:23:06 12'24 0 4303 4052
28 PICHARD Adrien 16456 H18 6911RA 1:23:10 12'24 4874 4300 -574 4874
29 GREBEL Laurence-Marie 6064 D45 7305RA 1:25:06 12'42 4758 4202 -556 4758
30 GROSJEAN Cathy 23628 D45 6913RA 1:28:21 13'11 4778 4047 -731 4778
31 BONORA Beatrice 243 D45 6906RA 1:30:13 13'27 4398 3964 -434 4398
32 FERRETTI Bernard 815 H65 4203RA 1:31:05 13'35 4027 3926 -101 4091
33 BARRIER Marianne 801 D21 4203RA 1:32:01 13'44 3797 3886 +89 3921
34 PAULET Guillaume 13744 H21 6913RA 1:34:50 14'09 5087 3771 -1316 4989
35 BONORA Marine 11542 D20 6906RA 1:43:39 15'28 4905 3450 -1455 4815
36 MOTHE Pierre 17711 H55 4201RA 1:51:52 16'41 4177 3197 -980 4177
37 MORE Gilles 257 H50 6906RA 1:53:00 16'51 0 3164 0
38 DENTON Genevieve 15 D45 4204RA 1:53:17 16'54 3591 3157 -434 3591
39 DUMENIL David 29314 H21 6906RA 1:54:47 17'07 2537 3115 +578 2697
40 THOMASSIN J-Luc 260 H45 6906RA 1:55:46 17'16 3856 3089 -767 3856
41 ROCHE Sandrine 10684 D45 3810RA 2:00:07 17'55 3754 2977 -777 3729
42 PORNET Patrick 7388 H55 3810RA 2:14:10 20'01 2707 2665 -42 2775
VALETTE Marion 10430 D18 6913RA pm None 4955 0 4955
LE GLAND Louise 22186 D16 7404RA pm None 5080 0 5192
RIVOLLIER Isaline 22451 D20 4201RA pm None 4361 0 4361
DESCOURVIERES Perrine 25550 D18 7407RA pm None 3650 0 3760